WEATHER DATA

YESTERDAY
Time Temp. Dewp. Hum. Wind dir Wind speed Wind gust Bar. 1h Prec. 24h Prec.
06:15 -6.3 -9.6 75 315 0.3 0.8 1020.5 0.0000 0.0000
06:25 -6.2 -9.3 76 345 0.3 0.8 1020.6 0.0000 0.0000
06:34 -6.2 -9.3 76 16 0.3 0.8 1020.6 0.0000 0.0000
06:45 -6.2 -9.3 76 348 0.3 0.8 1020.6 0.0000 0.0000
06:55 -6.1 -9.2 76 343 0.3 0.8 1020.8 0.0000 0.0000
07:05 -5.9 -8.9 77 315 0.3 0.6 1020.8 0.0000 0.0000
07:15 -5.5 -8.5 77 323 0.3 0.6 1021.1 0.0000 0.0000
07:25 -5.3 -8.5 76 333 0.3 0.6 1021.1 0.0000 0.0000
07:35 -5.1 -8.3 76 315 0.3 0.6 1021.2 0.0000 0.0000
07:45 -4.6 -8.1 74 270 0.3 0.6 1021.5 0.0000 0.0000
07:55 -4.5 -8 74 0.0 0.6 1021.6 0.0000 0.0000
08:05 -4.2 -7.9 73 355 0.3 0.6 1021.7 0.0000 0.0000
08:15 -3.6 -6.8 76 230 0.3 0.6 1021.8 0.0000 0.0000
08:26 -2.8 -6.5 73 234 0.3 0.8 1021.8 0.0000 0.0000
08:35 -2.4 -6.9 68 270 0.3 0.6 1021.8 0.0000 0.0000
08:45 -2.4 -6.8 69 315 0.3 0.8 1021.9 0.0000 0.0000
08:55 -2.4 -8.4 60 65 1.1 3.1 1021.9 0.0000 0.0000
09:06 -2.9 -9 59 90 1.4 4.7 1022.1 0.0000 0.0000
09:15 -2.9 -9.8 55 43 1.4 3.6 1022.1 0.0000 0.0000
09:24 -2.8 -9.5 56 74 1.1 3.9 1022.1 0.0000 0.0000
09:35 -2.6 -9.3 56 49 1.1 3.6 1022.1 0.0000 0.0000
09:44 -2.4 -9.3 55 48 1.1 2.5 1022 0.0000 0.0000
09:54 -2 -8.8 56 63 1.7 4.2 1021.9 0.0000 0.0000
10:05 -1.9 -8.5 57 41 1.9 4.2 1021.8 0.0000 0.0000
10:15 -1.6 -8.2 57 38 2.2 5.3 1021.8 0.0000 0.0000
10:24 -1.4 -8 57 69 2.5 6.4 1021.8 0.0000 0.0000
10:34 -1.2 -7.6 58 52 1.7 4.7 1021.9 0.0000 0.0000
10:45 -0.9 -7.1 59 83 2.2 5.8 1021.8 0.0000 0.0000
10:55 -0.5 -6.9 58 36 2.2 6.1 1021.9 0.0000 0.0000
11:01 -0.5 -6.7 59 73 1.9 4.2 1021.9 0.0000 0.0000
11:14 -0.1 -6.6 58 80 2.5 6.7 1021.9 0.0000 0.0000
11:25 -0.2 -6.1 61 97 2.5 5.0 1021.9 0.0000 0.0000
11:35 -0.1 -6.4 59 58 2.2 4.7 1022.3 0.0000 0.0000
11:45 -0.5 -6.4 61 71 2.2 5.3 1022.2 0.0000 0.0000
11:55 -0.6 -6.1 63 108 1.9 6.4 1022 0.0000 0.0000
12:06 0 -6.3 59 42 2.2 6.1 1021.8 0.0000 0.0000
12:16 0.4 -5.9 59 68 1.9 4.2 1021.8 0.0000 0.0000
12:24 0.9 -5.7 58 77 2.5 6.1 1021.7 0.0000 0.0000
12:35 0.4 -6.3 57 80 1.7 5.3 1021.7 0.0000 0.0000
12:46 0 -6.9 56 49 1.7 3.6 1021.7 0.0000 0.0000
12:56 -0.4 -7.4 55 27 1.9 4.2 1021.7 0.0000 0.0000
13:05 -0.4 -7.7 54 35 1.9 5.3 1021.5 0.0000 0.0000
13:16 0.1 -7.4 53 36 2.2 4.4 1021.5 0.0000 0.0000
13:26 0.3 -7.2 53 70 1.9 5.0 1021.4 0.0000 0.0000
13:32 0.5 -7.3 52 90 1.9 4.4 1021.4 0.0000 0.0000
13:46 0.6 -7.7 50 37 1.9 4.7 1021.2 0.0000 0.0000
13:56 0.3 -7.9 50 21 2.2 4.7 1021.2 0.0000 0.0000
14:05 0.4 -7.6 51 65 2.2 6.1 1021.2 0.0000 0.0000
14:16 0.3 -8.4 48 42 2.2 5.8 1021 0.0000 0.0000
14:26 0.3 -8.9 46 56 2.2 5.8 1021.1 0.0000 0.0000
14:36 0.2 -8.5 48 36 2.5 6.4 1021.2 0.0000 0.0000
14:47 0.3 -8.1 49 39 1.9 4.4 1021.1 0.0000 0.0000
14:57 0.4 -7.8 50 79 1.9 4.4 1021 0.0000 0.0000
15:05 0.4 -8.3 48 45 1.9 4.7 1021.2 0.0000 0.0000
15:17 0.3 -8.9 46 36 1.9 4.7 1021.1 0.0000 0.0000
15:27 0.2 -9.4 44 33 2.2 5.0 1021.2 0.0000 0.0000
15:37 0.2 -9.4 44 42 2.2 4.7 1021.2 0.0000 0.0000
15:46 0.1 -9.3 45 26 2.2 4.4 1021.2 0.0000 0.0000
15:57 0 -9.6 44 36 2.2 5.0 1021.5 0.0000 0.0000
16:07 -0.4 -10 44 18 3.6 6.9 1021.5 0.0000 0.0000
16:17 -0.6 -9.4 47 26 1.9 4.4 1021.5 0.0000 0.0000
16:27 -0.8 -9.6 47 23 2.2 6.1 1021.6 0.0000 0.0000
16:37 -1.1 -9.4 49 36 1.4 3.6 1021.7 0.0000 0.0000
16:47 -1.3 -10.1 47 22 3.1 5.3 1021.8 0.0000 0.0000
16:57 -1.5 -9.8 49 47 1.1 3.3 1021.8 0.0000 0.0000
17:08 -1.7 -10 49 48 1.9 4.7 1021.8 0.0000 0.0000
17:18 -2 -10.3 49 17 3.3 5.8 1021.9 0.0000 0.0000
17:27 -2.2 -10 51 19 1.9 4.2 1022 0.0000 0.0000
17:37 -2.4 -10.2 51 37 2.2 4.2 1022.2 0.0000 0.0000
17:48 -2.5 -9.9 53 31 1.9 5.0 1022.4 0.0000 0.0000
17:58 -2.8 -10.1 53 21 1.7 4.2 1022.4 0.0000 0.0000
18:07 -3 -9.9 55 31 1.4 3.9 1022.6 0.0000 0.0000
18:18 -3.2 -9.9 56 34 1.7 3.9 1022.8 0.0000 0.0000
18:28 -3.4 -10.1 56 23 2.2 4.7 1022.8 0.0000 0.0000
18:38 -3.6 -10.3 56 64 1.7 4.7 1022.9 0.0000 0.0000
18:47 -3.6 -10.1 57 43 1.9 3.9 1023.2 0.0000 0.0000
18:48 -3.7 -10.2 57 51 1.7 3.9 1023.3 0.0000 0.0000
19:05 -4 -10.3 58 67 2.2 4.7 1023.3 0.0000 0.0000
19:18 -4.3 -10.6 58 90 1.9 4.7 1023.4 0.0000 0.0000
19:28 -4.5 -10.7 58 90 1.7 3.3 1023.6 0.0000 0.0000
19:39 -4.6 -10.8 58 77 1.7 4.4 1023.8 0.0000 0.0000
19:48 -4.8 -11 58 79 1.9 4.7 1023.9 0.0000 0.0000
19:58 -5 -11.2 58 54 1.4 3.3 1024.1 0.0000 0.0000
20:09 -5.2 -11.6 57 32 1.1 3.1 1024.1 0.0000 0.0000
20:19 -5.3 -11.3 59 90 1.1 3.3 1024.2 0.0000 0.0000
20:28 -5.3 -11.3 59 59 1.1 2.5 1024.2 0.0000 0.0000
20:39 -5.5 -11.3 60 21 0.8 2.5 1024.3 0.0000 0.0000
20:48 -5.6 -11.4 60 45 0.8 2.5 1024.4 0.0000 0.0000
21:07 -5.9 -11.5 61 18 1.4 3.3 1024.4 0.0000 0.0000
21:19 -6 -11.6 61 25 1.4 4.2 1024.5 0.0000 0.0000
21:39 -6.2 -11.4 63 32 0.8 1.4 1024.6 0.0000 0.0000
21:49 -6.3 -11.4 64 50 1.1 3.1 1024.6 0.0000 0.0000
21:59 -6.4 -11.6 63 16 1.1 2.5 1024.8 0.0000 0.0000
22:09 -6.5 -11.4 65 50 1.1 3.1 1024.7 0.0000 0.0000
22:19 -6.5 -11.2 66 77 1.4 3.9 1024.8 0.0000 0.0000
22:29 -6.6 -11.1 67 37 1.4 4.4 1024.9 0.0000 0.0000
22:40 -6.7 -11.2 67 72 1.1 3.9 1024.9 0.0000 0.0000
22:50 -6.8 -11.2 68 72 1.1 2.2 1025 0.0000 0.0000
22:59 -6.9 -11.4 67 26 1.1 3.3 1025 0.0000 0.0000
23:10 -7 -11.4 68 26 1.1 3.1 1025 0.0000 0.0000
23:20 -7.1 -11.5 68 25 1.1 3.9 1025 0.0000 0.0000
23:28 -7.2 -11.4 69 33 1.4 3.1 1025.1 0.0000 0.0000

DAY STATISTICS

2018-02-24
TEMPERATURE
AVERAGE
-2.8
HIGH
0.9
12:24
LOW
-7.2
23:28
PRESSURE
AVERAGE
1022.4
HIGH
1025.1
23:28
LOW
1020.5
06:15
DEWPOINT
AVERAGE
-9.1
HIGH
-5.7
12:24
LOW
-11.6
20:09
HUMIDITY
AVERAGE
59
HIGH
77
07:05
LOW
44
15:27
WIND SPEED
AVERAGE
1.5
HIGH
3.6
16:07
WIND GUST
AVERAGE
3.8
HIGH
6.9
16:07
WIND DIRECTION
PREVAILING
NE
52.9%
N
13.7
NE
52.9
E
22.5
SE
0.0
S
0.0
SW
2.0
W
2.0
NW
5.9
PRECIPITATION
RAIN HOUR
0.0
RAIN DAY
0.0
TEMPERATURE (°C)
LOW
-7.2
HIGH
0.9
AVERAGE
-2.8
PRESSURE (hpa)
LOW
1020.5
HIGH
1025.1
AVERAGE
1022.4
DEVICE